sim
Sign-in with your pilot id or email,
or register
Callsign
Passwort

Schedule Details

Flight Number: RYR8182 (1)
Departure: London Stansted Airport (EGSS) at 06:20
Arrival: Fuerteventura Airport (GCFV) at 10:30
Route: Ryanair Passenger Schedule. Enter filed route here before submitting Pirep.

Weather Information
Getting current METAR information for EGSS 181950Z AUTO 04007KT 9999 NCD 11/06 Q1026
Getting current METAR information for GCFV 182000Z 36016KT 9999 FEW045 18/11 Q1019

Schedule Frequency

Route Map